createdAt,value
2022-08-09T00:01:58.219Z,3.30
2022-08-09T00:06:16.614Z,3.72
2022-08-09T00:09:04.284Z,4.15
2022-08-09T00:12:27.070Z,3.38
2022-08-09T00:15:58.865Z,3.83
2022-08-09T00:19:23.684Z,3.70
2022-08-09T00:22:49.222Z,3.78
2022-08-09T00:26:14.475Z,3.70
2022-08-09T00:29:39.719Z,3.92
2022-08-09T00:33:17.911Z,3.60
2022-08-09T00:36:41.647Z,3.75
2022-08-09T00:40:12.713Z,4.05
2022-08-09T00:44:14.088Z,3.90
2022-08-09T00:47:24.731Z,4.03
2022-08-09T00:50:47.235Z,4.25
2022-08-09T00:54:14.367Z,4.00
2022-08-09T00:57:37.583Z,3.58
2022-08-09T01:01:08.145Z,3.95
2022-08-09T01:04:44.125Z,3.97
2022-08-09T01:08:12.433Z,4.18
2022-08-09T01:11:55.679Z,4.18
2022-08-09T01:15:22.131Z,3.92
2022-08-09T01:19:02.027Z,3.90
2022-08-09T01:22:55.276Z,4.35
2022-08-09T01:26:53.463Z,4.10
2022-08-09T01:30:33.590Z,3.92
2022-08-09T01:34:01.733Z,3.90
2022-08-09T01:37:43.176Z,3.85
2022-08-09T01:41:14.354Z,4.25
2022-08-09T01:44:39.454Z,3.80
2022-08-09T01:48:06.096Z,3.92
2022-08-09T01:51:32.279Z,4.10
2022-08-09T01:54:58.351Z,4.60
2022-08-09T01:58:24.146Z,4.30
2022-08-09T02:02:00.081Z,3.95
2022-08-09T02:05:37.919Z,4.18
2022-08-09T02:09:06.553Z,3.90
2022-08-09T02:12:30.751Z,4.65
2022-08-09T02:15:55.339Z,3.95
2022-08-09T02:19:19.640Z,4.65
2022-08-09T02:22:52.688Z,4.68
2022-08-09T02:26:25.228Z,4.22
2022-08-09T02:29:52.814Z,3.92
2022-08-09T02:33:17.382Z,4.55
2022-08-09T02:36:45.811Z,4.63
2022-08-09T02:40:15.917Z,4.50
2022-08-09T02:43:54.652Z,4.68
2022-08-09T02:47:20.994Z,4.30
2022-08-09T02:50:54.293Z,4.35
2022-08-09T02:54:21.768Z,4.22
2022-08-09T02:58:00.224Z,4.32
2022-08-09T03:01:29.685Z,4.55
2022-08-09T03:05:07.499Z,3.95
2022-08-09T03:08:39.375Z,4.65
2022-08-09T03:12:11.314Z,4.63
2022-08-09T03:15:40.669Z,4.22
2022-08-09T03:19:59.588Z,4.60
2022-08-09T03:23:14.624Z,4.28
2022-08-09T03:26:39.656Z,4.93
2022-08-09T03:30:09.739Z,3.95
2022-08-09T03:33:54.233Z,4.20
2022-08-09T03:37:56.706Z,4.75
2022-08-09T03:40:57.936Z,4.55
2022-08-09T03:44:20.999Z,4.45
2022-08-09T03:47:50.744Z,4.90
2022-08-09T03:51:54.124Z,4.40
2022-08-09T03:54:57.379Z,4.50
2022-08-09T03:58:21.227Z,4.95
2022-08-09T04:01:44.103Z,4.85
2022-08-09T04:05:13.907Z,4.82
2022-08-09T04:08:48.619Z,5.28
2022-08-09T04:12:37.227Z,4.60
2022-08-09T04:16:20.494Z,4.30
2022-08-09T04:19:50.846Z,4.40
2022-08-09T04:23:24.410Z,4.90
2022-08-09T04:26:46.517Z,4.53
2022-08-09T04:30:11.141Z,4.20
2022-08-09T04:33:33.966Z,4.72
2022-08-09T04:37:14.970Z,5.10
2022-08-09T04:40:56.025Z,4.53
2022-08-09T04:44:18.742Z,4.22
2022-08-09T04:47:45.338Z,4.80
2022-08-09T04:51:22.074Z,4.85
2022-08-09T04:54:45.015Z,4.85
2022-08-09T04:58:09.601Z,4.93
2022-08-09T05:01:31.264Z,4.55
2022-08-09T05:04:55.807Z,4.30
2022-08-09T05:08:17.650Z,4.45
2022-08-09T05:11:39.522Z,4.68
2022-08-09T05:15:11.157Z,4.45
2022-08-09T05:18:55.367Z,4.70
2022-08-09T05:22:33.502Z,4.43
2022-08-09T05:25:57.114Z,4.43
2022-08-09T05:29:22.690Z,4.40
2022-08-09T05:32:50.779Z,4.43
2022-08-09T05:36:15.575Z,4.10
2022-08-09T05:39:43.278Z,4.50
2022-08-09T05:43:07.248Z,4.25
2022-08-09T05:46:30.198Z,4.15
2022-08-09T05:50:24.209Z,4.50
2022-08-09T05:53:56.665Z,3.83
2022-08-09T05:57:19.152Z,4.38
2022-08-09T06:00:41.066Z,3.95
2022-08-09T06:04:05.512Z,4.13
2022-08-09T06:07:29.372Z,4.40
2022-08-09T06:10:51.599Z,4.35
2022-08-09T06:14:13.138Z,3.90
2022-08-09T06:17:39.726Z,3.80
2022-08-09T06:21:04.130Z,3.95
2022-08-09T06:24:28.058Z,4.07
2022-08-09T06:27:51.440Z,3.65
2022-08-09T06:31:13.623Z,4.28
2022-08-09T06:34:35.654Z,4.15
2022-08-09T06:38:05.729Z,3.20
2022-08-09T06:42:07.531Z,4.50
2022-08-09T06:46:05.082Z,3.92
2022-08-09T06:48:56.381Z,3.85
2022-08-09T06:52:23.501Z,3.67
2022-08-09T06:55:48.414Z,3.85
2022-08-09T07:00:51.955Z,3.58
2022-08-09T07:02:55.718Z,3.97
2022-08-09T07:06:18.987Z,3.75
2022-08-09T07:09:57.344Z,4.20
2022-08-09T07:13:28.285Z,3.80
2022-08-09T07:16:57.672Z,3.92
2022-08-09T07:20:20.548Z,3.50
2022-08-09T07:23:46.715Z,4.20
2022-08-09T07:27:26.519Z,4.00
2022-08-09T07:30:55.791Z,3.75
2022-08-09T07:34:20.281Z,3.78
2022-08-09T07:37:45.610Z,3.72
2022-08-09T07:41:11.431Z,3.95
2022-08-09T07:44:51.798Z,3.90
2022-08-09T07:48:25.502Z,3.20
2022-08-09T07:52:05.419Z,3.30
2022-08-09T07:55:41.590Z,3.38
2022-08-09T07:59:25.426Z,2.90
2022-08-09T08:02:58.124Z,3.38
2022-08-09T08:06:21.173Z,2.75
2022-08-09T08:09:51.451Z,3.00
2022-08-09T08:13:15.531Z,2.90
2022-08-09T08:16:39.699Z,3.00
2022-08-09T08:20:13.774Z,2.95
2022-08-09T08:23:35.564Z,2.67
2022-08-09T08:26:58.883Z,2.65
2022-08-09T08:30:20.751Z,2.42
2022-08-09T08:33:53.505Z,2.33
2022-08-09T08:37:17.910Z,2.97
2022-08-09T08:40:40.000Z,2.83
2022-08-09T08:44:04.533Z,2.42
2022-08-09T08:47:27.589Z,2.95
2022-08-09T08:50:51.869Z,2.72
2022-08-09T08:54:20.203Z,2.83
2022-08-09T08:57:43.491Z,3.10
2022-08-09T09:01:20.819Z,3.00
2022-08-09T09:04:52.755Z,2.97
2022-08-09T09:08:29.988Z,3.05
2022-08-09T09:11:55.290Z,2.83
2022-08-09T09:15:28.456Z,2.85
2022-08-09T09:19:21.430Z,3.08
2022-08-09T09:22:51.819Z,3.25
2022-08-09T09:26:17.146Z,3.13
2022-08-09T09:33:44.989Z,3.33
2022-08-09T09:37:08.542Z,2.75
2022-08-09T09:40:46.347Z,3.33
2022-08-09T09:44:12.100Z,3.15
2022-08-09T09:47:42.161Z,2.85
2022-08-09T09:51:26.072Z,2.80
2022-08-09T09:55:28.491Z,3.03
2022-08-09T09:58:50.230Z,2.97
2022-08-09T10:02:15.504Z,3.20
2022-08-09T10:06:04.033Z,2.72
2022-08-09T10:09:22.134Z,2.83
2022-08-09T10:12:55.339Z,2.95
2022-08-09T10:16:57.284Z,2.47
2022-08-09T10:20:32.533Z,2.70
2022-08-09T10:24:03.852Z,2.40
2022-08-09T10:27:34.619Z,2.65
2022-08-09T10:34:44.941Z,2.40
2022-08-09T10:38:55.238Z,2.30
2022-08-09T10:41:52.073Z,2.78
2022-08-09T10:45:16.699Z,2.33
2022-08-09T10:48:47.947Z,2.20
2022-08-09T10:52:30.684Z,2.20
2022-08-09T10:56:17.527Z,2.50
2022-08-09T10:59:55.393Z,2.35
2022-08-09T11:03:51.226Z,2.53
2022-08-09T11:07:55.791Z,2.22
2022-08-09T11:11:13.926Z,2.10
2022-08-09T11:14:38.213Z,2.63
2022-08-09T11:18:03.681Z,2.60
2022-08-09T11:21:57.229Z,2.45
2022-08-09T11:25:47.880Z,2.50
2022-08-09T11:30:05.074Z,2.47
2022-08-09T11:33:44.641Z,2.60
2022-08-09T11:37:18.326Z,2.58
2022-08-09T11:40:42.044Z,2.80
2022-08-09T11:44:05.783Z,2.70
2022-08-09T11:47:46.429Z,2.80
2022-08-09T11:53:00.618Z,3.00
2022-08-09T11:55:51.585Z,2.72
2022-08-09T11:59:33.018Z,2.60
2022-08-09T12:02:56.263Z,2.72
2022-08-09T12:06:26.453Z,2.50
2022-08-09T12:09:53.864Z,2.90
2022-08-09T12:14:08.474Z,2.40
2022-08-09T12:17:27.829Z,2.60
2022-08-09T12:20:57.446Z,2.72
2022-08-09T12:24:24.557Z,2.80
2022-08-09T12:28:59.954Z,2.28
2022-08-09T12:31:59.333Z,2.63
2022-08-09T12:35:19.078Z,2.47
2022-08-09T12:38:43.514Z,2.20
2022-08-09T12:42:09.032Z,2.17
2022-08-09T12:45:34.356Z,2.20
2022-08-09T12:49:00.972Z,2.40
2022-08-09T12:52:58.584Z,2.10
2022-08-09T12:56:12.209Z,2.30
2022-08-09T12:59:57.388Z,2.28
2022-08-09T13:03:54.087Z,2.15
2022-08-09T13:07:13.478Z,2.20
2022-08-09T13:10:46.667Z,2.17
2022-08-09T13:14:41.027Z,2.25
2022-08-09T13:18:05.851Z,2.17
2022-08-09T13:22:37.218Z,2.22
2022-08-09T13:25:14.946Z,2.20
2022-08-09T13:28:39.575Z,2.25
2022-08-09T13:32:16.285Z,2.28
2022-08-09T13:36:38.769Z,1.90
2022-08-09T13:41:20.953Z,2.17
2022-08-09T13:43:09.853Z,2.20
2022-08-09T13:47:15.900Z,2.22
2022-08-09T13:50:30.047Z,2.15
2022-08-09T13:53:52.942Z,2.25
2022-08-09T13:57:36.656Z,2.10
2022-08-09T14:00:58.635Z,2.05
2022-08-09T14:04:23.876Z,2.10
2022-08-09T14:07:49.263Z,1.92
2022-08-09T14:11:16.188Z,2.40
2022-08-09T14:14:37.986Z,2.42
2022-08-09T14:18:18.858Z,2.50
2022-08-09T14:21:43.284Z,2.13
2022-08-09T14:25:05.812Z,2.35
2022-08-09T14:28:32.755Z,2.40
2022-08-09T14:31:55.076Z,2.65
2022-08-09T14:35:17.254Z,2.33
2022-08-09T14:38:41.093Z,2.20
2022-08-09T14:42:03.627Z,2.20
2022-08-09T14:47:01.071Z,2.50
2022-08-09T14:49:10.588Z,2.58
2022-08-09T14:52:32.447Z,2.38
2022-08-09T14:55:56.290Z,2.08
2022-08-09T14:59:18.307Z,2.35
2022-08-09T15:02:42.821Z,2.30
2022-08-09T15:06:11.063Z,2.63
2022-08-09T15:10:07.099Z,2.28
2022-08-09T15:13:16.274Z,2.33
2022-08-09T15:16:38.338Z,2.45
2022-08-09T15:20:02.665Z,2.20
2022-08-09T15:24:03.689Z,2.63
2022-08-09T15:27:07.240Z,1.80
2022-08-09T15:30:48.656Z,2.30
2022-08-09T15:34:31.977Z,2.25
2022-08-09T15:37:57.197Z,2.05
2022-08-09T15:41:33.331Z,2.13
2022-08-09T15:44:58.284Z,2.10
2022-08-09T15:48:28.522Z,2.10
2022-08-09T15:52:04.827Z,1.98
2022-08-09T15:55:27.307Z,1.98
2022-08-09T15:58:49.863Z,2.42
2022-08-09T16:02:15.886Z,2.15
2022-08-09T16:05:53.804Z,2.28
2022-08-09T16:09:16.898Z,1.90
2022-08-09T16:12:50.238Z,2.03
2022-08-09T16:16:17.170Z,1.98
2022-08-09T16:19:49.350Z,2.00
2022-08-09T16:23:23.101Z,2.05
2022-08-09T16:26:48.710Z,1.75
2022-08-09T16:30:16.863Z,1.92
2022-08-09T16:33:51.306Z,2.00
2022-08-09T16:37:13.316Z,1.77
2022-08-09T16:40:40.711Z,2.15
2022-08-09T16:44:03.330Z,1.95
2022-08-09T16:48:40.749Z,2.10
2022-08-09T16:51:08.635Z,2.42
2022-08-09T16:54:36.441Z,1.90
2022-08-09T16:58:10.164Z,2.30
2022-08-09T17:01:33.759Z,2.45
2022-08-09T17:04:56.049Z,1.85
2022-08-09T17:08:46.140Z,2.15
2022-08-09T17:11:59.463Z,1.90
2022-08-09T17:15:31.213Z,2.08
2022-08-09T17:19:05.168Z,2.13
2022-08-09T17:22:30.936Z,1.80
2022-08-09T17:25:54.897Z,1.90
2022-08-09T17:29:20.361Z,2.00
2022-08-09T17:32:44.034Z,2.05
2022-08-09T17:36:09.154Z,2.15
2022-08-09T17:39:52.168Z,1.85
2022-08-09T17:43:34.641Z,1.75
2022-08-09T17:46:57.881Z,1.85
2022-08-09T17:50:36.076Z,1.77
2022-08-09T17:53:59.802Z,1.98
2022-08-09T17:58:02.076Z,1.80
2022-08-09T18:01:03.820Z,1.75
2022-08-09T18:04:25.516Z,2.00
2022-08-09T18:07:48.974Z,1.77
2022-08-09T18:11:16.382Z,1.90
2022-08-09T18:14:42.185Z,1.50
2022-08-09T18:18:25.380Z,2.00
2022-08-09T18:21:50.386Z,1.90
2022-08-09T18:25:15.921Z,1.88
2022-08-09T18:30:39.001Z,1.70
2022-08-09T18:32:19.272Z,1.92
2022-08-09T18:35:58.122Z,2.25
2022-08-09T18:39:22.255Z,2.00
2022-08-09T18:42:46.713Z,1.88
2022-08-09T18:46:48.545Z,1.95
2022-08-09T18:49:50.322Z,2.30
2022-08-09T18:53:13.754Z,2.17
2022-08-09T18:56:38.532Z,2.22
2022-08-09T19:00:04.489Z,1.90
2022-08-09T19:03:26.767Z,1.80
2022-08-09T19:06:51.032Z,2.25
2022-08-09T19:10:17.623Z,1.98
2022-08-09T19:13:51.276Z,2.60
2022-08-09T19:17:15.135Z,2.40
2022-08-09T19:20:38.912Z,2.60
2022-08-09T19:24:33.555Z,2.38
2022-08-09T19:27:43.494Z,2.20
2022-08-09T19:31:07.824Z,2.22
2022-08-09T19:34:31.170Z,2.13
2022-08-09T19:37:56.154Z,2.17
2022-08-09T19:41:33.361Z,2.25
2022-08-09T19:44:57.570Z,1.80
2022-08-09T19:49:00.292Z,2.25
2022-08-09T19:52:02.788Z,2.60
2022-08-09T19:55:30.396Z,2.20
2022-08-09T19:58:56.422Z,2.33
2022-08-09T20:04:07.437Z,1.70
2022-08-09T20:06:23.039Z,2.28
2022-08-09T20:09:47.292Z,1.85
2022-08-09T20:13:10.431Z,2.05
2022-08-09T20:16:48.981Z,1.88
2022-08-09T20:20:14.768Z,2.10
2022-08-09T20:23:38.996Z,2.15
2022-08-09T20:27:08.056Z,2.10
2022-08-09T20:30:30.555Z,1.80
2022-08-09T20:33:58.344Z,1.67
2022-08-09T20:37:23.286Z,2.10
2022-08-09T20:40:45.100Z,2.40
2022-08-09T20:44:12.401Z,1.73
2022-08-09T20:47:48.014Z,2.00
2022-08-09T20:51:19.232Z,1.80
2022-08-09T20:54:52.737Z,2.00
2022-08-09T20:58:20.225Z,2.35
2022-08-09T21:01:50.500Z,2.08
2022-08-09T21:05:56.425Z,1.95
2022-08-09T21:08:55.053Z,1.92
2022-08-09T21:15:52.075Z,2.10
2022-08-09T21:20:18.242Z,2.10
2022-08-09T21:23:02.001Z,1.70
2022-08-09T21:26:24.212Z,2.20
2022-08-09T21:29:49.015Z,2.10
2022-08-09T21:33:10.982Z,2.03
2022-08-09T21:36:39.293Z,1.90
2022-08-09T21:40:30.383Z,1.95
2022-08-09T21:43:57.888Z,2.05
2022-08-09T21:47:20.377Z,2.13
2022-08-09T21:50:43.453Z,2.80
2022-08-09T21:54:13.697Z,2.30
2022-08-09T21:57:59.181Z,2.30
2022-08-09T22:01:44.845Z,2.30
2022-08-09T22:05:16.769Z,2.30
2022-08-09T22:08:44.120Z,2.17
2022-08-09T22:12:18.348Z,2.22
2022-08-09T22:15:40.723Z,2.15
2022-08-09T22:19:02.302Z,3.20
2022-08-09T22:22:44.416Z,2.90
2022-08-09T22:26:12.595Z,2.67
2022-08-09T22:29:48.748Z,2.58
2022-08-09T22:33:12.149Z,2.63
2022-08-09T22:36:46.232Z,3.15
2022-08-09T22:40:18.224Z,2.67
2022-08-09T22:44:01.944Z,2.60
2022-08-09T22:48:15.519Z,2.95
2022-08-09T22:51:10.270Z,2.53
2022-08-09T22:54:32.754Z,2.97
2022-08-09T22:58:00.102Z,2.85
2022-08-09T23:01:21.933Z,3.30
2022-08-09T23:04:53.668Z,2.75
2022-08-09T23:08:33.959Z,2.95
2022-08-09T23:11:55.969Z,3.00
2022-08-09T23:15:17.774Z,2.95
2022-08-09T23:18:39.886Z,2.83
2022-08-09T23:22:03.504Z,2.92
2022-08-09T23:25:25.663Z,2.92
2022-08-09T23:28:47.466Z,3.20
2022-08-09T23:32:09.257Z,3.05
2022-08-09T23:35:30.767Z,2.90
2022-08-09T23:39:13.727Z,3.03
2022-08-09T23:42:35.729Z,3.05
2022-08-09T23:45:57.342Z,3.25
2022-08-09T23:49:24.600Z,3.33
2022-08-09T23:52:46.659Z,3.35
2022-08-09T23:56:12.162Z,2.97
2022-08-09T23:59:48.209Z,3.20
